Time;durP1;ratioP1;P1;durP2;ratioP2;P2;SDS_P1;SDS_P2;PMS_P1;PMS_P2;Temp;Humidity;BMP_temperature;BMP_pressure;BME280_temperature;BME280_humidity;BME280_pressure;Samples;Min_cycle;Max_cycle;Signal;HPM_P1;HPM_P2
2022/01/23 00:01:26;;;;;;;3.63;3.43;;;18.50;40.20;;;;;;5042298;28;20449;-68
2022/01/23 00:03:52;;;;;;;3.87;3.60;;;18.50;40.20;;;;;;5043836;28;20431;-68
2022/01/23 00:06:17;;;;;;;4.50;4.20;;;18.50;40.20;;;;;;5039602;28;20477;-68
2022/01/23 00:08:43;;;;;;;3.70;3.50;;;18.50;40.20;;;;;;5042595;28;21327;-68
2022/01/23 00:11:08;;;;;;;3.50;3.30;;;18.50;40.20;;;;;;5039232;28;20223;-68
2022/01/23 00:17:16;;;;;;;4.03;3.70;;;18.50;40.20;;;;;;5045143;28;20226;-68
2022/01/23 00:19:09;;;;;;;3.33;3.13;;;18.50;40.80;;;;;;5044110;28;20469;-68
2022/01/23 00:21:37;;;;;;;3.60;3.40;;;18.50;40.20;;;;;;5053135;28;20472;-68
2022/01/23 00:31:57;;;;;;;3.43;3.23;;;18.50;40.30;;;;;;5038190;28;20453;-68
2022/01/23 00:34:22;;;;;;;3.80;3.53;;;18.50;40.30;;;;;;5044774;28;20802;-68
2022/01/23 00:36:48;;;;;;;5.63;5.20;;;18.50;40.30;;;;;;5037016;28;20243;-68
2022/01/23 00:39:14;;;;;;;3.53;3.33;;;18.50;40.30;;;;;;5048665;28;20306;-68
2022/01/23 00:41:39;;;;;;;3.40;3.20;;;18.50;40.30;;;;;;5049321;28;20246;-68
2022/01/23 00:44:05;;;;;;;3.80;3.50;;;18.50;40.40;;;;;;5046880;28;20736;-68
2022/01/23 00:46:34;;;;;;;4.07;3.77;;;18.50;40.30;;;;;;5045706;28;20227;-68
2022/01/23 00:51:35;;;;;;;3.70;3.40;;;18.50;40.30;;;;;;5043450;28;20505;-68
2022/01/23 00:54:03;;;;;;;3.80;3.60;;;18.50;40.30;;;;;;5047178;28;20400;-68
2022/01/23 00:56:29;;;;;;;3.77;3.57;;;18.50;40.40;;;;;;5042679;28;20501;-68
2022/01/23 00:58:54;;;;;;;3.33;3.13;;;18.50;40.40;;;;;;5044312;28;20458;-66
2022/01/23 01:01:20;;;;;;;4.17;3.93;;;18.50;40.30;;;;;;5044882;28;20238;-68
2022/01/23 01:03:47;;;;;;;3.57;3.37;;;18.40;40.20;;;;;;5042303;28;20215;-68
2022/01/23 01:06:15;;;;;;;3.43;3.23;;;18.50;40.30;;;;;;5046198;28;20230;-68
2022/01/23 01:08:41;;;;;;;4.27;3.50;;;18.50;41.10;;;;;;5042359;28;20459;-69
2022/01/23 01:32:50;;;;;;;3.60;3.30;;;18.40;40.10;;;;;;5040890;28;20503;-68
2022/01/23 01:35:28;;;;;;;3.97;3.67;;;18.40;40.20;;;;;;5043701;28;20439;-68
2022/01/23 01:37:55;;;;;;;3.37;3.17;;;18.40;40.20;;;;;;5046620;28;20466;-68
2022/01/23 01:40:22;;;;;;;3.10;2.90;;;18.40;40.20;;;;;;5043008;28;20455;-68
2022/01/23 01:42:48;;;;;;;4.43;4.10;;;18.40;40.20;;;;;;5042122;28;20467;-69
2022/01/23 01:45:21;;;;;;;3.93;3.73;;;18.40;40.10;;;;;;5040950;28;20879;-68
2022/01/23 01:47:48;;;;;;;3.40;3.20;;;18.40;40.20;;;;;;5042130;28;20454;-69
2022/01/23 01:50:13;;;;;;;3.50;3.30;;;18.40;40.20;;;;;;5045973;28;20453;-69
2022/01/23 01:52:41;;;;;;;4.10;3.80;;;18.40;40.20;;;;;;5037932;28;20539;-68
2022/01/23 01:55:09;;;;;;;4.10;3.80;;;18.40;40.20;;;;;;5041066;28;20218;-68
2022/01/23 01:57:40;;;;;;;3.90;3.70;;;18.40;41.00;;;;;;5043739;28;20837;-68
2022/01/23 02:00:14;;;;;;;3.50;3.30;;;18.40;40.20;;;;;;5045884;28;20963;-68
2022/01/23 02:10:50;;;;;;;3.50;3.30;;;18.40;40.20;;;;;;5045039;28;20835;-68
2022/01/23 02:13:21;;;;;;;3.77;3.57;;;18.40;40.20;;;;;;5043309;28;20429;-69
2022/01/23 02:51:23;;;;;;;4.17;3.70;;;18.40;40.30;;;;;;5075165;28;20476;-68
2022/01/23 02:56:22;;;;;;;3.10;2.90;;;18.30;40.20;;;;;;5047078;28;20410;-68
2022/01/23 02:58:59;;;;;;;3.63;3.43;;;18.30;40.20;;;;;;5036973;28;20814;-68
2022/01/23 03:01:31;;;;;;;3.53;3.33;;;18.30;40.20;;;;;;5042918;28;20923;-69
2022/01/23 03:04:02;;;;;;;4.03;3.73;;;18.30;40.20;;;;;;5038845;28;20423;-68
2022/01/23 03:14:36;;;;;;;3.90;3.50;;;18.30;40.20;;;;;;5041457;28;20501;-68
2022/01/23 03:30:51;;;;;;;3.60;3.40;;;18.30;40.30;;;;;;5046102;28;20426;-69
2022/01/23 03:33:17;;;;;;;4.00;3.80;;;18.30;40.30;;;;;;5040613;28;20452;-69
2022/01/23 03:35:43;;;;;;;3.43;3.23;;;18.30;40.30;;;;;;5045666;28;20436;-69
2022/01/23 03:38:09;;;;;;;3.77;3.53;;;18.30;40.30;;;;;;5042342;28;20225;-69
2022/01/23 03:40:34;;;;;;;3.93;3.63;;;18.30;40.30;;;;;;5048496;28;20530;-69
2022/01/23 03:43:09;;;;;;;3.43;3.23;;;18.30;40.30;;;;;;5042088;28;20234;-69
2022/01/23 03:50:51;;;;;;;3.63;3.40;;;18.30;40.30;;;;;;5046478;28;20426;-69
2022/01/23 03:53:17;;;;;;;3.73;3.53;;;18.30;40.30;;;;;;5040980;28;20423;-69
2022/01/23 03:55:43;;;;;;;3.73;3.53;;;18.30;40.30;;;;;;5042549;28;20304;-69
2022/01/23 03:58:09;;;;;;;3.43;3.23;;;18.30;40.30;;;;;;5040067;28;20222;-68
2022/01/23 04:00:35;;;;;;;3.57;3.37;;;18.30;40.30;;;;;;5038821;28;20438;-69
2022/01/23 04:03:00;;;;;;;4.07;3.80;;;18.30;40.30;;;;;;5042182;28;20243;-68
2022/01/23 04:05:26;;;;;;;4.47;4.17;;;18.30;40.30;;;;;;5039657;28;20271;-69
2022/01/23 04:07:52;;;;;;;3.30;3.10;;;18.30;40.30;;;;;;5039408;28;20219;-69
2022/01/23 04:10:20;;;;;;;3.70;3.50;;;18.30;40.30;;;;;;5039207;28;20262;-69
2022/01/23 04:13:00;;;;;;;3.00;2.80;;;18.30;40.30;;;;;;5040786;28;20254;-69
2022/01/23 04:20:35;;;;;;;3.30;3.10;;;18.30;40.30;;;;;;5042490;28;20978;-69
2022/01/23 04:31:45;;;;;;;3.53;3.33;;;18.30;40.30;;;;;;5042833;28;20866;-68
2022/01/23 05:01:12;;;;;;;3.77;3.47;;;18.30;40.30;;;;;;5051232;28;21030;-68
2022/01/23 05:06:24;;;;;;;3.40;3.20;;;18.30;40.30;;;;;;5044222;28;20494;-69
2022/01/23 05:08:50;;;;;;;3.93;3.73;;;18.30;40.30;;;;;;5049635;28;20455;-69
2022/01/23 05:11:16;;;;;;;3.67;3.47;;;18.20;40.30;;;;;;5043769;28;20493;-70
2022/01/23 05:13:42;;;;;;;3.27;3.07;;;18.30;40.30;;;;;;5051257;28;20425;-69
2022/01/23 05:16:09;;;;;;;3.70;3.50;;;18.30;40.30;;;;;;5050069;28;20317;-69
2022/01/23 05:18:36;;;;;;;3.80;3.60;;;18.30;40.30;;;;;;5043921;28;20218;-70
2022/01/23 05:23:47;;;;;;;3.60;3.40;;;18.30;40.20;;;;;;5047925;28;20464;-70
2022/01/23 05:26:13;;;;;;;3.40;3.20;;;18.30;41.10;;;;;;5048276;28;20415;-69
2022/01/23 05:28:39;;;;;;;3.20;3.00;;;18.30;40.20;;;;;;5041672;28;20313;-69
2022/01/23 05:31:04;;;;;;;3.67;3.37;;;18.30;40.30;;;;;;5048454;28;20249;-70
2022/01/23 05:33:30;;;;;;;3.50;3.30;;;18.30;40.20;;;;;;5053094;28;20233;-69
2022/01/23 05:35:56;;;;;;;3.47;3.27;;;18.30;40.20;;;;;;5048813;28;20681;-69
2022/01/23 05:38:21;;;;;;;3.83;3.63;;;18.30;40.20;;;;;;5047230;28;20628;-70
2022/01/23 05:40:55;;;;;;;3.53;3.23;;;18.30;40.20;;;;;;5076673;28;20272;-70
2022/01/23 05:43:21;;;;;;;3.33;3.13;;;18.30;40.20;;;;;;5041384;28;20231;-70
2022/01/23 05:45:46;;;;;;;3.90;3.70;;;18.30;40.20;;;;;;5046255;28;20448;-72
2022/01/23 05:48:12;;;;;;;4.20;4.00;;;18.30;40.20;;;;;;5047969;28;20219;-70
2022/01/23 05:50:38;;;;;;;3.60;3.40;;;18.30;40.20;;;;;;5042778;28;20227;-70
2022/01/23 05:53:03;;;;;;;3.80;3.60;;;18.30;40.20;;;;;;5049148;28;20311;-69
2022/01/23 05:55:29;;;;;;;4.03;3.73;;;18.30;40.10;;;;;;5041596;28;20225;-69
2022/01/23 05:57:55;;;;;;;3.30;3.10;;;18.30;40.10;;;;;;5035874;28;20731;-69
2022/01/23 06:00:20;;;;;;;3.73;3.43;;;18.30;40.10;;;;;;5044209;28;20230;-68
2022/01/23 06:02:46;;;;;;;3.60;3.40;;;18.40;40.20;;;;;;5038638;28;20310;-68
2022/01/23 06:05:12;;;;;;;3.50;3.30;;;18.40;40.20;;;;;;5043414;28;20295;-69
2022/01/23 06:07:37;;;;;;;3.63;3.43;;;18.40;40.20;;;;;;5044117;28;20301;-69
2022/01/23 06:10:04;;;;;;;3.60;3.40;;;18.40;40.20;;;;;;5042859;28;20234;-75
2022/01/23 06:12:30;;;;;;;3.50;3.30;;;18.40;40.20;;;;;;5042258;28;20283;-72
2022/01/23 06:14:55;;;;;;;3.33;3.13;;;18.40;40.10;;;;;;5043169;28;20463;-72
2022/01/23 06:17:21;;;;;;;6.70;3.60;;;18.40;40.10;;;;;;5043640;28;20234;-70
2022/01/23 06:19:47;;;;;;;3.10;2.90;;;18.40;40.10;;;;;;5048070;28;20584;-70
2022/01/23 06:22:14;;;;;;;3.40;3.20;;;18.40;40.10;;;;;;5044998;28;20226;-70
2022/01/23 06:24:46;;;;;;;3.50;3.30;;;18.40;40.10;;;;;;5038697;28;20263;-69
2022/01/23 06:27:12;;;;;;;3.33;3.13;;;18.40;40.20;;;;;;5041232;28;20440;-70
2022/01/23 06:29:38;;;;;;;3.27;3.07;;;18.40;40.10;;;;;;5045450;28;20477;-69
2022/01/23 06:32:04;;;;;;;4.23;4.03;;;18.40;40.10;;;;;;5046911;28;20230;-69
2022/01/23 06:34:30;;;;;;;4.23;4.03;;;18.40;40.10;;;;;;5041927;28;20478;-69
2022/01/23 06:36:57;;;;;;;3.73;3.53;;;18.40;40.10;;;;;;5041538;28;20456;-69
2022/01/23 06:39:24;;;;;;;4.20;4.00;;;18.40;40.10;;;;;;5042275;28;20432;-73
2022/01/23 06:41:50;;;;;;;4.40;4.00;;;18.40;40.10;;;;;;5044093;28;20829;-71
2022/01/23 06:44:16;;;;;;;3.60;3.40;;;18.40;40.10;;;;;;5046224;28;20822;-70
2022/01/23 06:46:43;;;;;;;3.40;3.20;;;18.40;40.10;;;;;;5044424;28;20550;-70
2022/01/23 06:49:10;;;;;;;4.10;3.90;;;18.40;40.00;;;;;;5043772;28;20880;-69
2022/01/23 06:51:36;;;;;;;3.80;3.50;;;18.40;40.10;;;;;;5046858;28;20930;-73
2022/01/23 06:54:02;;;;;;;3.33;3.13;;;18.40;40.00;;;;;;5041925;28;20486;-71
2022/01/23 06:56:27;;;;;;;3.70;3.50;;;18.40;40.10;;;;;;5049222;28;20543;-70
2022/01/23 06:58:54;;;;;;;4.33;4.03;;;18.40;40.00;;;;;;5045865;28;20813;-70
2022/01/23 07:01:20;;;;;;;3.53;3.30;;;18.40;40.00;;;;;;5045336;28;20250;-69
2022/01/23 07:03:45;;;;;;;3.57;3.37;;;18.40;40.00;;;;;;5043425;28;20427;-70
2022/01/23 07:06:11;;;;;;;3.47;3.27;;;18.40;40.00;;;;;;5040288;28;20430;-68
2022/01/23 07:08:36;;;;;;;3.87;3.67;;;18.40;40.00;;;;;;5041347;28;20226;-68
2022/01/23 07:11:02;;;;;;;3.43;3.17;;;18.40;40.00;;;;;;5039217;28;20221;-68
2022/01/23 07:13:28;;;;;;;3.83;3.63;;;18.40;40.00;;;;;;5049257;28;20670;-70
2022/01/23 07:15:53;;;;;;;4.17;3.97;;;18.40;40.00;;;;;;5044135;28;20223;-69
2022/01/23 07:18:19;;;;;;;4.00;3.80;;;18.40;40.00;;;;;;5041748;28;20691;-69
2022/01/23 07:20:46;;;;;;;3.63;3.43;;;18.40;40.00;;;;;;5047841;28;20222;-69
2022/01/23 07:23:12;;;;;;;3.90;3.70;;;18.40;40.00;;;;;;5041495;28;20631;-75
2022/01/23 07:25:39;;;;;;;4.03;3.80;;;18.40;40.00;;;;;;5043077;28;20450;-74
2022/01/23 07:28:06;;;;;;;3.73;3.50;;;18.40;40.00;;;;;;5034630;28;20427;-71
2022/01/23 07:30:40;;;;;;;3.63;3.43;;;18.50;40.10;;;;;;5040624;28;20434;-70
2022/01/23 07:33:05;;;;;;;3.57;3.37;;;18.50;39.90;;;;;;5046923;28;20471;-67
2022/01/23 07:35:32;;;;;;;4.27;4.00;;;18.50;39.80;;;;;;5048548;28;20461;-67
2022/01/23 07:37:57;;;;;;;3.30;3.10;;;18.60;39.80;;;;;;5045089;28;20222;-68
2022/01/23 07:40:23;;;;;;;3.70;3.50;;;18.60;39.70;;;;;;5043458;28;20441;-68
2022/01/23 07:42:49;;;;;;;3.70;3.50;;;18.60;39.70;;;;;;5045718;28;20261;-68
2022/01/23 07:45:14;;;;;;;3.80;3.50;;;18.60;39.70;;;;;;5044000;28;20226;-67
2022/01/23 07:47:40;;;;;;;3.30;3.10;;;18.70;39.80;;;;;;5043396;28;20233;-67
2022/01/23 07:50:08;;;;;;;3.30;3.10;;;18.70;39.80;;;;;;5040459;28;20226;-68
2022/01/23 07:52:35;;;;;;;3.20;2.90;;;18.70;39.80;;;;;;5037634;28;20223;-67
2022/01/23 07:55:06;;;;;;;3.10;2.90;;;18.80;39.80;;;;;;5043603;28;20417;-67
2022/01/23 07:57:32;;;;;;;3.80;3.50;;;18.70;39.80;;;;;;5041119;28;20422;-67
2022/01/23 07:59:59;;;;;;;3.40;3.20;;;18.80;39.80;;;;;;5040085;28;20463;-67
2022/01/23 08:02:24;;;;;;;3.33;3.13;;;18.80;40.70;;;;;;5039084;28;20245;-66
2022/01/23 08:04:50;;;;;;;3.60;3.30;;;18.70;39.80;;;;;;5060093;28;20464;-67
2022/01/23 08:07:30;;;;;;;4.20;3.60;;;18.70;39.90;;;;;;5039029;28;21031;-66
2022/01/23 08:10:03;;;;;;;3.70;3.40;;;18.80;40.00;;;;;;5040617;28;20667;-67
2022/01/23 08:12:30;;;;;;;3.80;3.60;;;18.70;40.00;;;;;;5035591;28;20456;-68
2022/01/23 08:14:57;;;;;;;3.60;3.30;;;18.80;40.10;;;;;;5045600;28;20474;-67
2022/01/23 08:17:26;;;;;;;4.03;3.73;;;18.70;40.00;;;;;;5042104;28;20452;-71
2022/01/23 08:19:53;;;;;;;3.70;3.40;;;18.70;40.10;;;;;;5039972;28;21159;-67
2022/01/23 08:22:22;;;;;;;3.80;3.60;;;18.70;40.00;;;;;;5040939;28;20471;-68
2022/01/23 08:24:48;;;;;;;3.63;3.43;;;18.80;40.10;;;;;;5045426;28;20455;-69
2022/01/23 08:27:14;;;;;;;3.70;3.40;;;18.80;40.10;;;;;;5041010;28;20421;-69
2022/01/23 08:29:40;;;;;;;3.43;3.23;;;18.80;40.10;;;;;;5041738;28;20526;-68
2022/01/23 08:32:06;;;;;;;3.50;3.30;;;18.80;40.10;;;;;;5037877;28;20467;-68
2022/01/23 08:34:32;;;;;;;3.50;3.20;;;18.80;40.00;;;;;;5045980;28;20317;-67
2022/01/23 08:36:58;;;;;;;4.63;3.20;;;18.80;40.00;;;;;;5045200;28;20521;-68
2022/01/23 08:39:26;;;;;;;3.30;3.10;;;18.80;40.00;;;;;;5039924;28;20242;-67
2022/01/23 08:41:52;;;;;;;3.40;3.20;;;18.80;40.10;;;;;;5044584;28;20454;-62
2022/01/23 08:44:21;;;;;;;3.67;3.47;;;18.90;40.10;;;;;;5044141;28;20459;-72
2022/01/23 08:46:48;;;;;;;3.87;3.67;;;18.80;40.10;;;;;;5043356;28;20466;-71
2022/01/23 08:49:17;;;;;;;3.67;3.47;;;18.90;40.10;;;;;;5041401;28;20506;-70
2022/01/23 08:51:44;;;;;;;3.80;3.60;;;18.90;40.10;;;;;;5040258;28;20490;-70
2022/01/23 08:54:10;;;;;;;3.47;3.27;;;18.90;40.10;;;;;;5048833;28;20430;-66
2022/01/23 08:56:36;;;;;;;4.77;4.37;;;18.90;40.10;;;;;;5043812;28;20464;-67
2022/01/23 08:59:02;;;;;;;4.00;3.60;;;18.90;40.00;;;;;;5041211;28;21140;-67
2022/01/23 09:01:29;;;;;;;3.80;3.50;;;18.90;40.30;;;;;;5043962;28;20255;-65
2022/01/23 09:03:55;;;;;;;3.50;3.30;;;18.90;40.00;;;;;;5042693;28;20452;-65
2022/01/23 09:06:21;;;;;;;3.47;3.27;;;18.90;40.00;;;;;;5040775;28;20720;-66
2022/01/23 09:08:47;;;;;;;4.20;3.90;;;18.90;40.00;;;;;;5042651;28;20226;-65
2022/01/23 09:11:25;;;;;;;4.13;3.90;;;18.90;40.00;;;;;;5043196;28;20426;-64
2022/01/23 09:14:07;;;;;;;3.87;3.60;;;18.90;40.00;;;;;;5040743;28;20683;-68
2022/01/23 09:16:51;;;;;;;4.17;3.97;;;19.00;40.10;;;;;;5047754;28;21027;-65
2022/01/23 09:19:18;;;;;;;4.07;3.67;;;19.00;40.10;;;;;;5040965;28;20434;-66
2022/01/23 09:21:44;;;;;;;4.07;3.77;;;19.00;40.10;;;;;;5046150;28;20460;-67
2022/01/23 09:24:11;;;;;;;4.20;3.90;;;18.90;40.00;;;;;;5044418;28;20477;-67
2022/01/23 09:26:37;;;;;;;5.13;4.20;;;19.00;40.10;;;;;;5041967;28;20567;-69
2022/01/23 09:29:16;;;;;;;5.03;4.67;;;18.90;40.00;;;;;;5047580;28;20459;-70
2022/01/23 09:31:48;;;;;;;5.20;4.80;;;18.90;40.10;;;;;;5043248;28;20455;-70
2022/01/23 09:34:15;;;;;;;5.03;4.63;;;18.90;40.10;;;;;;5042775;28;20427;-66
2022/01/23 09:36:41;;;;;;;4.60;4.20;;;18.90;40.20;;;;;;5045527;28;20517;-73
2022/01/23 09:39:07;;;;;;;4.40;4.13;;;18.90;40.20;;;;;;5052560;28;20460;-73
2022/01/23 09:41:35;;;;;;;4.53;4.23;;;18.80;40.10;;;;;;5045203;28;20273;-70
2022/01/23 09:44:01;;;;;;;4.43;4.13;;;18.80;40.20;;;;;;5048289;28;20371;-70
2022/01/23 09:46:27;;;;;;;4.30;4.00;;;18.80;40.20;;;;;;5036467;28;20496;-69
2022/01/23 09:48:54;;;;;;;4.67;4.40;;;18.80;40.20;;;;;;5039340;28;20447;-69
2022/01/23 09:51:23;;;;;;;4.53;4.33;;;18.80;40.20;;;;;;5041029;28;20257;-69
2022/01/23 09:53:52;;;;;;;4.57;4.17;;;18.80;40.90;;;;;;5043954;28;20440;-69
2022/01/23 09:56:26;;;;;;;4.53;4.23;;;18.80;40.20;;;;;;5042851;28;20469;-69
2022/01/23 09:58:53;;;;;;;4.10;3.80;;;18.70;40.20;;;;;;5037374;28;20455;-69
2022/01/23 10:01:20;;;;;;;4.77;4.47;;;18.80;40.20;;;;;;5039830;28;20438;-72
2022/01/23 10:03:46;;;;;;;4.40;4.20;;;18.70;40.20;;;;;;5070302;28;20510;-71
2022/01/23 10:06:12;;;;;;;4.43;4.03;;;18.70;40.10;;;;;;5042547;28;20534;-70
2022/01/23 10:08:38;;;;;;;4.80;4.50;;;18.70;40.10;;;;;;5039653;28;20222;-69
2022/01/23 10:11:09;;;;;;;4.57;4.30;;;18.70;40.10;;;;;;5048225;28;20283;-69
2022/01/23 10:13:34;;;;;;;4.63;4.27;;;18.70;40.10;;;;;;5041224;28;20448;-68
2022/01/23 10:16:00;;;;;;;5.00;4.70;;;18.70;40.10;;;;;;5042679;28;20490;-70
2022/01/23 10:18:27;;;;;;;4.70;4.40;;;18.70;40.10;;;;;;5041627;28;20215;-68
2022/01/23 10:20:52;;;;;;;4.40;4.10;;;18.70;40.20;;;;;;5069813;28;20670;-69
2022/01/23 10:23:18;;;;;;;4.33;4.03;;;18.70;40.10;;;;;;5042468;28;20424;-68
2022/01/23 10:25:46;;;;;;;4.80;4.40;;;18.60;40.00;;;;;;5034593;28;20219;-70
2022/01/23 10:28:20;;;;;;;4.17;3.97;;;18.60;40.00;;;;;;5030595;28;20288;-70
2022/01/23 10:30:51;;;;;;;4.27;4.00;;;18.60;40.00;;;;;;5021919;28;20459;-70
2022/01/23 10:33:35;;;;;;;4.47;4.17;;;18.70;40.00;;;;;;5017492;28;20428;-69
2022/01/23 10:36:12;;;;;;;4.70;4.40;;;18.60;40.00;;;;;;5020266;28;20471;-69
2022/01/23 10:38:53;;;;;;;4.40;4.13;;;18.60;40.00;;;;;;5020516;28;20434;-68
2022/01/23 10:49:58;;;;;;;4.33;4.10;;;18.60;40.00;;;;;;5037912;28;20485;-68
2022/01/23 10:52:32;;;;;;;7.40;5.23;;;18.60;40.00;;;;;;5039708;28;20483;-68
2022/01/23 10:54:59;;;;;;;4.80;4.50;;;18.60;40.00;;;;;;5038821;28;20431;-68
2022/01/23 10:57:36;;;;;;;4.50;4.30;;;18.60;40.10;;;;;;5040069;28;20426;-68
2022/01/23 11:00:05;;;;;;;5.00;4.70;;;18.60;40.00;;;;;;5037308;28;20452;-68
2022/01/23 11:02:31;;;;;;;4.20;4.00;;;18.60;40.00;;;;;;5037537;28;20514;-70
2022/01/23 11:05:09;;;;;;;4.20;3.90;;;18.60;40.00;;;;;;5041330;28;20896;-68
2022/01/23 11:07:39;;;;;;;6.27;4.70;;;18.60;40.00;;;;;;5037940;28;20695;-68
2022/01/23 11:10:08;;;;;;;4.30;3.97;;;18.60;40.00;;;;;;5044207;28;20452;-68
2022/01/23 11:18:09;;;;;;;4.00;3.60;;;18.60;40.00;;;;;;5037504;28;20429;-68
2022/01/23 11:20:41;;;;;;;3.87;3.67;;;18.60;40.00;;;;;;5037844;28;20535;-68
2022/01/23 11:23:13;;;;;;;4.33;4.13;;;18.60;40.00;;;;;;5037539;28;20470;-67
2022/01/23 11:25:43;;;;;;;4.83;4.60;;;18.60;40.10;;;;;;5041459;28;20452;-67
2022/01/23 11:28:09;;;;;;;3.90;3.70;;;18.60;40.10;;;;;;5042759;28;20468;-67
2022/01/23 11:30:41;;;;;;;4.50;4.20;;;18.50;40.00;;;;;;5043303;28;20509;-70
2022/01/23 11:33:12;;;;;;;3.60;3.40;;;18.60;40.10;;;;;;5038748;28;20458;-69
2022/01/23 11:35:39;;;;;;;5.27;4.97;;;18.60;40.10;;;;;;5040273;28;20848;-68
2022/01/23 11:38:11;;;;;;;3.80;3.60;;;18.50;40.00;;;;;;5040703;28;20451;-68
2022/01/23 11:54:49;;;;;;;4.00;3.77;;;18.50;40.10;;;;;;5037514;28;20489;-68
2022/01/23 11:57:33;;;;;;;4.07;3.87;;;18.50;40.10;;;;;;5038665;28;20419;-68
2022/01/23 12:00:02;;;;;;;3.73;3.53;;;18.50;40.10;;;;;;5035534;28;20461;-67
2022/01/23 12:02:35;;;;;;;4.40;4.10;;;18.50;40.10;;;;;;5041098;28;20477;-67
2022/01/23 12:05:14;;;;;;;4.23;3.93;;;18.50;40.10;;;;;;5039810;28;20454;-67
2022/01/23 12:07:41;;;;;;;4.03;3.80;;;18.50;40.10;;;;;;5040026;28;20426;-67
2022/01/23 12:10:16;;;;;;;4.00;3.77;;;18.50;40.10;;;;;;5038004;28;20414;-67
2022/01/23 12:12:48;;;;;;;4.10;3.80;;;18.50;40.10;;;;;;5037906;28;20455;-68
2022/01/23 12:18:29;;;;;;;4.83;4.57;;;18.50;40.10;;;;;;5037715;28;20487;-67
2022/01/23 12:20:56;;;;;;;3.83;3.63;;;18.50;40.10;;;;;;5037979;28;20452;-67
2022/01/23 12:23:22;;;;;;;4.00;3.80;;;18.50;40.10;;;;;;5036318;28;20546;-67
2022/01/23 12:25:51;;;;;;;3.60;3.40;;;18.50;40.10;;;;;;5038774;28;20423;-67
2022/01/23 12:28:20;;;;;;;3.70;3.50;;;18.50;40.10;;;;;;5038482;28;20510;-68
2022/01/23 12:30:51;;;;;;;4.13;3.40;;;18.50;40.20;;;;;;5037034;28;20534;-68
2022/01/23 12:33:18;;;;;;;3.47;3.23;;;18.50;40.10;;;;;;5038188;28;20513;-68
2022/01/23 12:35:47;;;;;;;4.23;4.03;;;18.50;40.10;;;;;;5042122;28;20452;-67
2022/01/23 12:38:14;;;;;;;4.37;4.10;;;18.50;40.10;;;;;;5038668;28;20448;-68
2022/01/23 12:40:47;;;;;;;4.17;3.97;;;18.50;40.10;;;;;;5040819;28;20482;-68
2022/01/23 12:43:17;;;;;;;3.77;3.53;;;18.50;40.20;;;;;;5038048;28;21072;-68
2022/01/23 12:45:43;;;;;;;4.10;3.80;;;18.50;40.10;;;;;;5039746;28;20444;-68
2022/01/23 12:48:29;;;;;;;4.23;4.03;;;18.50;40.20;;;;;;5043529;28;20517;-68
2022/01/23 12:51:01;;;;;;;3.70;3.50;;;18.50;40.20;;;;;;5037288;28;20222;-67
2022/01/23 12:53:47;;;;;;;3.50;3.30;;;18.50;40.20;;;;;;5038059;28;20452;-66
2022/01/23 12:56:18;;;;;;;4.00;3.70;;;18.50;40.20;;;;;;5036601;28;20460;-66
2022/01/23 12:58:58;;;;;;;3.80;3.60;;;18.50;40.20;;;;;;5037179;28;20435;-64
2022/01/23 13:01:27;;;;;;;3.40;3.20;;;18.50;40.20;;;;;;5037117;28;20471;-67
2022/01/23 13:03:58;;;;;;;3.27;3.07;;;18.50;40.20;;;;;;5037439;28;20439;-66
2022/01/23 13:06:33;;;;;;;3.20;3.00;;;18.50;40.10;;;;;;5039605;28;20429;-66
2022/01/23 13:09:22;;;;;;;3.87;3.60;;;18.50;40.10;;;;;;5039439;28;20450;-66
2022/01/23 13:31:44;;;;;;;3.60;3.40;;;18.60;39.90;;;;;;5041954;28;20455;-65
2022/01/23 13:34:45;;;;;;;3.47;3.17;;;18.60;40.00;;;;;;5043779;28;20912;-65
2022/01/23 13:37:22;;;;;;;3.33;3.13;;;18.60;40.70;;;;;;5028493;28;20528;-68
2022/01/23 13:39:57;;;;;;;4.00;3.80;;;18.60;39.90;;;;;;5043069;28;20473;-65
2022/01/23 13:59:31;;;;;;;4.83;3.70;;;18.70;39.90;;;;;;5041806;28;20442;-66
2022/01/23 14:04:29;;;;;;;8.00;3.70;;;18.60;39.90;;;;;;5038223;28;20417;-67
2022/01/23 14:06:56;;;;;;;3.70;3.40;;;18.70;40.00;;;;;;5039066;28;20908;-67
2022/01/23 14:09:26;;;;;;;3.50;3.20;;;18.70;40.10;;;;;;5040266;28;20427;-66
2022/01/23 14:11:52;;;;;;;4.37;3.37;;;18.70;40.00;;;;;;5041614;28;20432;-66
2022/01/23 14:14:26;;;;;;;5.80;3.10;;;18.70;40.00;;;;;;5040107;28;20448;-66
2022/01/23 14:16:55;;;;;;;4.00;3.17;;;18.70;40.00;;;;;;5043387;28;20521;-66
2022/01/23 14:19:23;;;;;;;5.40;3.00;;;18.70;40.10;;;;;;5042668;28;20453;-66
2022/01/23 14:21:56;;;;;;;3.27;2.57;;;18.70;40.00;;;;;;5042265;28;20490;-66
2022/01/23 14:24:26;;;;;;;4.97;3.23;;;18.70;40.10;;;;;;5039778;28;20430;-66
2022/01/23 14:26:59;;;;;;;4.70;3.20;;;18.70;40.10;;;;;;5040428;28;20547;-66
2022/01/23 14:29:27;;;;;;;3.43;3.13;;;18.70;40.10;;;;;;5040003;28;20546;-66
2022/01/23 14:32:14;;;;;;;4.87;3.33;;;18.70;40.10;;;;;;5034550;28;20451;-66
2022/01/23 14:34:41;;;;;;;3.80;3.40;;;18.70;40.10;;;;;;5039869;28;20463;-66
2022/01/23 14:37:07;;;;;;;2.80;2.60;;;18.70;40.10;;;;;;5040845;28;20985;-66
2022/01/23 14:39:35;;;;;;;3.37;3.10;;;18.70;40.20;;;;;;5041998;28;20460;-66
2022/01/23 14:42:18;;;;;;;2.87;2.70;;;18.70;40.20;;;;;;5039401;28;20447;-66
2022/01/23 14:44:45;;;;;;;3.17;2.97;;;18.80;40.30;;;;;;5040444;28;20484;-67
2022/01/23 14:47:11;;;;;;;2.73;2.53;;;18.70;40.20;;;;;;5040125;28;20800;-68
2022/01/23 14:49:42;;;;;;;2.90;2.73;;;18.70;40.20;;;;;;5038856;28;20470;-66
2022/01/23 14:52:13;;;;;;;3.57;3.27;;;18.70;40.20;;;;;;5050159;28;20483;-65
2022/01/23 14:54:39;;;;;;;3.83;3.63;;;18.70;40.30;;;;;;5038382;28;20430;-64
2022/01/23 14:57:11;;;;;;;2.90;2.70;;;18.80;40.30;;;;;;5036269;28;20480;-67
2022/01/23 14:59:37;;;;;;;2.80;2.60;;;18.80;40.30;;;;;;5043239;28;20456;-66
2022/01/23 15:02:06;;;;;;;3.30;3.10;;;18.70;40.20;;;;;;5040594;28;20463;-66
2022/01/23 15:04:40;;;;;;;2.60;2.40;;;18.70;40.20;;;;;;5035616;28;20470;-65
2022/01/23 15:07:13;;;;;;;4.07;3.10;;;18.80;41.10;;;;;;5039219;28;20448;-66
2022/01/23 15:09:38;;;;;;;2.80;2.50;;;18.70;40.30;;;;;;5034557;28;20451;-66
2022/01/23 15:12:04;;;;;;;3.40;3.10;;;18.70;40.30;;;;;;5038034;28;20445;-65
2022/01/23 15:14:30;;;;;;;2.70;2.50;;;18.80;40.40;;;;;;5036165;28;20298;-66
2022/01/23 15:16:55;;;;;;;2.93;2.73;;;18.70;40.30;;;;;;5043471;28;20310;-65
2022/01/23 15:19:21;;;;;;;2.87;2.60;;;18.70;40.30;;;;;;5043720;28;20248;-65
2022/01/23 15:21:47;;;;;;;2.60;2.50;;;18.80;40.40;;;;;;5036076;28;20286;-66
2022/01/23 15:24:12;;;;;;;2.70;2.53;;;18.80;40.40;;;;;;5037150;28;20230;-66
2022/01/23 15:26:40;;;;;;;2.93;2.60;;;18.80;40.40;;;;;;5042542;28;20223;-66
2022/01/23 15:29:06;;;;;;;2.97;2.77;;;18.80;40.40;;;;;;5035249;28;20239;-67
2022/01/23 15:31:32;;;;;;;2.70;2.60;;;18.70;40.30;;;;;;5039599;28;20956;-68
2022/01/23 15:33:58;;;;;;;2.70;2.60;;;18.80;40.40;;;;;;5073307;28;20522;-67
2022/01/23 15:36:23;;;;;;;2.60;2.40;;;18.80;40.40;;;;;;5041680;28;20924;-66
2022/01/23 15:38:49;;;;;;;2.53;2.43;;;18.80;40.50;;;;;;5035315;28;20256;-66
2022/01/23 15:41:15;;;;;;;2.63;2.50;;;18.80;40.50;;;;;;5037764;28;20219;-66
2022/01/23 15:43:41;;;;;;;2.73;2.53;;;18.80;40.40;;;;;;5039597;28;20226;-67
2022/01/23 15:46:06;;;;;;;2.83;2.67;;;18.80;40.40;;;;;;5046590;28;20222;-65
2022/01/23 15:48:33;;;;;;;2.27;2.17;;;18.80;40.50;;;;;;5043548;28;20238;-65
2022/01/23 15:51:00;;;;;;;3.00;2.80;;;18.80;40.40;;;;;;5039470;28;20222;-65
2022/01/23 15:53:26;;;;;;;3.03;2.83;;;18.80;40.40;;;;;;5037316;28;20969;-65
2022/01/23 15:55:52;;;;;;;2.97;2.77;;;18.80;40.40;;;;;;5039184;28;20460;-65
2022/01/23 15:58:17;;;;;;;2.50;2.40;;;18.80;40.40;;;;;;5041082;28;20818;-65
2022/01/23 16:00:43;;;;;;;3.13;2.93;;;18.80;40.40;;;;;;5036922;28;20215;-66
2022/01/23 16:03:09;;;;;;;2.60;2.40;;;18.80;40.40;;;;;;5046489;28;20596;-65
2022/01/23 16:05:35;;;;;;;2.50;2.40;;;18.80;40.50;;;;;;5039434;28;20640;-64
2022/01/23 16:08:02;;;;;;;3.23;2.90;;;18.80;40.50;;;;;;5043596;28;20244;-65
2022/01/23 16:10:27;;;;;;;3.90;2.53;;;18.80;40.50;;;;;;5039604;28;20423;-62
2022/01/23 16:12:53;;;;;;;2.40;2.20;;;18.80;40.50;;;;;;5039989;28;20519;-66
2022/01/23 16:15:21;;;;;;;2.73;2.53;;;18.80;40.40;;;;;;5040662;28;20263;-66
2022/01/23 16:17:48;;;;;;;2.83;2.63;;;18.80;40.50;;;;;;5037993;28;20306;-65
2022/01/23 16:20:14;;;;;;;2.70;2.50;;;18.80;40.40;;;;;;5042611;28;20449;-66
2022/01/23 16:22:41;;;;;;;2.63;2.33;;;18.80;40.40;;;;;;5039507;28;20430;-65
2022/01/23 16:25:07;;;;;;;2.27;2.17;;;18.80;40.40;;;;;;5036896;28;20430;-65
2022/01/23 16:27:33;;;;;;;2.93;2.33;;;18.80;40.40;;;;;;5039054;28;20514;-66
2022/01/23 16:29:59;;;;;;;2.60;2.40;;;18.90;40.50;;;;;;5034896;28;20471;-66
2022/01/23 16:32:25;;;;;;;2.97;2.70;;;18.90;40.40;;;;;;5040118;28;20672;-66
2022/01/23 16:34:50;;;;;;;3.00;2.40;;;18.90;40.40;;;;;;5037913;28;20226;-66
2022/01/23 16:37:16;;;;;;;2.87;2.67;;;18.90;40.40;;;;;;5036712;28;20230;-66
2022/01/23 16:39:42;;;;;;;3.10;2.90;;;18.90;40.40;;;;;;5036494;28;20227;-66